PHKOYBBN

Guest
Details From PHKO - Kona Intl At Keahole
To YBBN - Brisbane Intl
Flight Number -
Tags Generated
Created
Modified
Stats Distance 4,094 nm / 7,582 km
Max Altitude 0 ft / 0 m
Waypoints 3
Social Downloads 1
Likes 0
Share VATSIM

Download

Looking for another format? Having issues loading an existing format? Contact us
Advertisement - Login to hide

Notes

Generated

Route

PHKO LEAKY YBBN

ID Type Via Altitude Latitude Longitude Leg Dist Tot Dist Heading (true) Name
O PHKO APT - 0 ft / 0 m 19.75386˚ -156.04429˚ - 0 nm - -
LEAKY FIX - 0 ft / 0 m -27.26750˚ 153.33944˚ 4078 nm 4078 nm 228° / 232° -
O YBBN APT - 0 ft / 0 m -27.40786˚ 153.10379˚ 15 nm 4093 nm 236° / 236° -

Altitude Profile

Advertisement - Login to hide

Weather


0- 5 10 15 20 25 30 35+ Temperature / ° C

Clouds and Precipitation
Forecast for 2018-05-21 12:00 UTC. Updated 4 hours ago

Ground ~20,000 ft ~40,000 ft Winds

PHKO

Details ICAO PHKO (KOA)
Name Kona Intl At Keahole
Region USA (Hawaii)
Timezone Pacific/Honolulu (UTC-10.0)
Stats Elevation 45 ft / 14 m (AMSL)
Location 19.739343° -156.045756°
Runways 1
Magnetic Variation 9.423° E

METAR

PHKO 211453Z AUTO 00000KT 9SM OVC040 23/18 A2998

Decode

TAF

PHKO 211123Z 2112/2212 11005KT P6SM FEW050 FM211900 23009KT P6SM SCT060 FM220500 11005KT P6SM BKN060

Decode

Departure Runways

ID Width Length Bearing (true) Bearing (mag) Surface Threshold Offset Overrun Length
17 150 ft / 46 m 11,461 ft / 3,493 m 184.77° 175.35° Asphalt 407 ft / 124 m 0 ft / 0 m
35 150 ft / 46 m 11,461 ft / 3,493 m 4.77° 355.35° Asphalt 0 ft / 0 m 404 ft / 123 m

YBBN

Details ICAO YBBN (BNE)
Name Brisbane Intl
Region Australia
Timezone Australia/Brisbane (UTC+10.0)
Stats Elevation 12 ft / 4 m (AMSL)
Location -27.375714° 153.127710°
Runways 2
Magnetic Variation 10.987° E

METAR

YBBN 211500Z 25003KT CAVOK 11/08 Q1020 NOSIG

Decode

TAF

TAF YBBN 211116Z 2112/2218 25005KT CAVOK FM220400 05007KT CAVOK FM220800 13006KT CAVOK FM221100 22005KT CAVOK

Decode

Destination Runways

ID Width Length Bearing (true) Bearing (mag) Surface Threshold Offset Overrun Length
01 148 ft / 45 m 11,805 ft / 3,598 m 26.93° 15.94° Asphalt 197 ft / 60 m 0 ft / 0 m
14 98 ft / 30 m 5,787 ft / 1,764 m 145.66° 134.67° Asphalt 197 ft / 60 m 0 ft / 0 m
19 148 ft / 45 m 11,805 ft / 3,598 m 206.92° 195.93° Asphalt 0 ft / 0 m 0 ft / 0 m
32 98 ft / 30 m 5,787 ft / 1,764 m 325.66° 314.67° Asphalt 197 ft / 60 m 0 ft / 0 m

Approach Navaids

Runway Type Ident Frequency Range Bearing (true) Bearing (mag) Slope Elevation
01 Localiser IBA 109.50 MHz 18 nm / 33 km 26.70° 15.71° - 28 ft / 9 m (AMSL)
01 Glidescope IBA 109.50 MHz 10 nm / 19 km 26.92° 15.93° 3.00° 13 ft / 4 m (AMSL)
19 Localiser IBS 110.10 MHz 18 nm / 33 km 206.97° 195.98° - 49 ft / 15 m (AMSL)
19 Glidescope IBS 110.10 MHz 10 nm / 19 km 206.92° 195.93° 3.00° 13 ft / 4 m (AMSL)

Popular Alternatives